Moravia, Texas
Current Conditions -  °F | °C
As of 6:15 PM on Sunday 25 Jan 2015 (Local Time) from K3T5 Reporting Station
Clear Clear  
Wind Chill: 63°   Ceiling: Unl
Heat Index: 63°   Visibility: 10mi
Dew Point: 36°   Wind: 3mph
Humidity: 36%   Direction: 300°WNW
Pressure: 30.1"   Gusts: NA
Location:  29.7125°N, 96.9231°W
Report Text: K3T5 260015Z AUTO 30003KT 10SM CLR 17/02 A3010 RMK AO2 T01720021
Loading
Personal Weather Stations






























Interactive Weather Map New forecast layout! Learn more

10-Day Weather Forecast

Advertisements
Track Severe Weather on mobile